Time;durP1;ratioP1;P1;durP2;ratioP2;P2;SDS_P1;SDS_P2;PMS_P1;PMS_P2;Temp;Humidity;BMP_temperature;BMP_pressure;BME280_temperature;BME280_humidity;BME280_pressure;Samples;Min_cycle;Max_cycle;Signal;HPM_P1;HPM_P2
2022/01/04 00:01:08;;;;;;;9.25;3.35;;;;;;;9.38;100.00;99899.19;5050775;28;20168;-74
2022/01/04 00:03:34;;;;;;;6.53;2.08;;;;;;;9.31;100.00;99896.50;5054802;28;20056;-76
2022/01/04 00:06:01;;;;;;;4.53;1.70;;;;;;;9.34;100.00;99897.66;5046705;28;20065;-75
2022/01/04 00:08:28;;;;;;;5.00;2.28;;;;;;;9.28;100.00;99878.00;5054595;28;20156;-75
2022/01/04 00:11:05;;;;;;;9.77;3.08;;;;;;;9.25;100.00;99881.56;5046615;28;20057;-76
2022/01/04 00:13:32;;;;;;;4.47;1.75;;;;;;;9.22;100.00;99874.09;5055835;28;20493;-75
2022/01/04 00:15:59;;;;;;;10.45;2.90;;;;;;;9.27;100.00;99862.63;5044795;28;20075;-73
2022/01/04 00:18:25;;;;;;;5.28;1.70;;;;;;;9.26;100.00;99852.00;5042828;28;20057;-70
2022/01/04 00:20:53;;;;;;;0.50;0.50;;;;;;;9.22;100.00;99849.25;5047411;28;20143;-72
2022/01/04 00:23:20;;;;;;;5.53;1.92;;;;;;;9.13;100.00;99848.19;5037384;28;20041;-70
2022/01/04 00:25:47;;;;;;;3.33;1.50;;;;;;;9.15;100.00;99840.28;5035798;28;20428;-73
2022/01/04 00:28:14;;;;;;;0.60;0.60;;;;;;;9.10;100.00;99843.47;5036874;28;20102;-70
2022/01/04 00:30:41;;;;;;;1.45;0.98;;;;;;;9.11;100.00;99839.53;5047305;28;20076;-73
2022/01/04 00:33:09;;;;;;;6.25;1.17;;;;;;;9.09;100.00;99842.72;5036541;28;20058;-71
2022/01/04 00:35:36;;;;;;;5.35;1.85;;;;;;;9.16;100.00;99836.31;5033417;28;20132;-72
2022/01/04 00:38:02;;;;;;;0.68;0.63;;;;;;;9.05;100.00;99832.88;5047585;28;20148;-70
2022/01/04 00:40:29;;;;;;;7.15;2.55;;;;;;;9.10;100.00;99824.94;5043962;28;20473;-71
2022/01/04 00:42:58;;;;;;;3.42;1.40;;;;;;;8.98;100.00;99816.41;5038735;28;20140;-71
2022/01/04 00:45:33;;;;;;;7.13;1.85;;;;;;;8.99;100.00;99810.47;5040770;28;20420;-71
2022/01/04 00:50:29;;;;;;;3.95;1.73;;;;;;;8.97;100.00;99814.81;5035908;28;20140;-70
2022/01/04 00:52:57;;;;;;;4.30;1.55;;;;;;;8.99;100.00;99804.97;5038965;28;20086;-71
2022/01/04 00:55:24;;;;;;;2.33;1.08;;;;;;;8.92;100.00;99799.50;5035757;28;20044;-69
2022/01/04 00:57:50;;;;;;;2.60;0.63;;;;;;;8.96;100.00;99799.47;5040262;28;20126;-72
2022/01/04 01:00:17;;;;;;;7.63;2.22;;;;;;;9.01;100.00;99793.50;5031164;28;20723;-73
2022/01/04 01:02:44;;;;;;;5.18;1.33;;;;;;;8.91;100.00;99792.41;5043345;28;20052;-70
2022/01/04 01:05:12;;;;;;;1.10;0.95;;;;;;;8.92;100.00;99793.19;5038055;28;20056;-74
2022/01/04 01:07:39;;;;;;;2.70;1.58;;;;;;;8.83;100.00;99779.88;5046296;28;20053;-71
2022/01/04 01:12:41;;;;;;;2.40;1.10;;;;;;;8.84;100.00;99770.41;5037594;28;20142;-73
2022/01/04 01:15:10;;;;;;;3.88;1.55;;;;;;;8.81;100.00;99764.94;5030455;28;20140;-73
2022/01/04 01:17:37;;;;;;;2.00;1.40;;;;;;;8.75;100.00;99767.34;5041607;28;20061;-74
2022/01/04 01:20:06;;;;;;;0.50;0.50;;;;;;;8.78;100.00;99760.22;5041719;28;20080;-73
2022/01/04 01:22:33;;;;;;;3.25;1.23;;;;;;;8.78;100.00;99746.44;5032148;28;20756;-71
2022/01/04 01:25:00;;;;;;;1.60;1.13;;;;;;;8.70;100.00;99742.16;5038629;28;20063;-74
2022/01/04 01:27:26;;;;;;;1.13;0.80;;;;;;;8.77;100.00;99742.88;5041377;28;20055;-72
2022/01/04 01:29:53;;;;;;;3.28;1.42;;;;;;;8.72;100.00;99735.06;5045890;28;20083;-70
2022/01/04 01:32:19;;;;;;;4.03;1.00;;;;;;;8.71;100.00;99733.47;5032796;28;20049;-72
2022/01/04 01:34:46;;;;;;;3.95;1.05;;;;;;;8.66;100.00;99736.69;5043461;28;20158;-72
2022/01/04 01:37:13;;;;;;;6.07;1.50;;;;;;;8.71;100.00;99732.72;5047497;28;20057;-71
2022/01/04 01:39:39;;;;;;;5.95;1.67;;;;;;;8.69;100.00;99730.38;5034649;28;20059;-72
2022/01/04 01:42:06;;;;;;;1.58;0.85;;;;;;;8.62;100.00;99724.91;5035887;28;20491;-72
2022/01/04 01:44:35;;;;;;;3.00;1.02;;;;;;;8.63;100.00;99725.69;5029920;28;20055;-72
2022/01/04 01:47:01;;;;;;;2.00;1.15;;;;;;;8.65;100.00;99720.56;5034095;28;20053;-72
2022/01/04 01:49:28;;;;;;;5.32;1.80;;;;;;;8.66;100.00;99720.16;5037864;28;20083;-70
2022/01/04 01:51:55;;;;;;;1.20;0.77;;;;;;;8.54;100.00;99717.88;5037334;28;20067;-73
2022/01/04 01:54:22;;;;;;;5.90;1.80;;;;;;;8.59;100.00;99728.50;5033465;28;20052;-73
2022/01/04 01:56:50;;;;;;;2.95;1.13;;;;;;;8.57;100.00;99728.09;5036286;28;20045;-71
2022/01/04 01:59:16;;;;;;;1.75;1.33;;;;;;;8.52;100.00;99728.53;5040080;28;20067;-73
2022/01/04 02:01:44;;;;;;;1.15;0.52;;;;;;;8.62;100.00;99726.88;5033519;28;20533;-74
2022/01/04 02:04:12;;;;;;;3.35;1.10;;;;;;;8.53;100.00;99719.06;5040854;28;20731;-72
2022/01/04 02:06:38;;;;;;;1.88;0.88;;;;;;;8.57;100.00;99711.56;5041817;28;20493;-72
2022/01/04 02:09:05;;;;;;;6.30;1.63;;;;;;;8.54;100.00;99709.59;5032277;28;20149;-70
2022/01/04 02:11:32;;;;;;;2.35;0.93;;;;;;;8.56;100.00;99698.97;5034018;28;20048;-71
2022/01/04 02:13:59;;;;;;;5.30;1.92;;;;;;;8.51;100.00;99690.34;5033328;28;20148;-75
2022/01/04 02:16:28;;;;;;;0.40;0.40;;;;;;;8.56;100.00;99687.16;5045354;28;20445;-72
2022/01/04 02:19:07;;;;;;;8.77;2.00;;;;;;;8.60;100.00;99682.41;5042867;28;20136;-71
2022/01/04 02:21:35;;;;;;;8.35;2.58;;;;;;;8.61;100.00;99690.25;5038695;28;20143;-70
2022/01/04 02:24:03;;;;;;;7.75;2.40;;;;;;;8.58;100.00;99685.56;5033379;28;20052;-75
2022/01/04 02:26:31;;;;;;;4.72;1.20;;;;;;;8.51;100.00;99676.56;5036683;28;20140;-70
2022/01/04 02:28:59;;;;;;;3.22;1.02;;;;;;;8.54;100.00;99673.00;5029110;28;20497;-73
2022/01/04 02:31:27;;;;;;;2.13;1.27;;;;;;;8.57;100.00;99680.47;5038003;28;20060;-70
2022/01/04 02:33:54;;;;;;;3.90;1.30;;;;;;;8.53;100.00;99674.97;5034782;28;20078;-71
2022/01/04 02:36:20;;;;;;;4.28;1.60;;;;;;;8.55;100.00;99669.84;5037287;28;20052;-71
2022/01/04 02:38:47;;;;;;;2.17;1.38;;;;;;;8.57;100.00;99675.72;5040203;28;21046;-72
2022/01/04 02:41:13;;;;;;;5.30;1.77;;;;;;;8.60;100.00;99674.13;5042626;28;20060;-71
2022/01/04 02:43:40;;;;;;;3.10;1.90;;;;;;;8.55;100.00;99653.31;5043749;28;20049;-71
2022/01/04 02:46:07;;;;;;;5.45;2.70;;;;;;;8.62;100.00;99657.94;5045879;28;20052;-71
2022/01/04 02:48:42;;;;;;;6.32;2.35;;;;;;;8.58;100.00;99652.47;5048111;28;20052;-72
2022/01/04 02:51:09;;;;;;;6.90;1.80;;;;;;;8.51;100.00;99647.03;5041262;28;20096;-72
2022/01/04 02:53:35;;;;;;;10.45;4.50;;;;;;;8.61;100.00;99646.13;5040367;28;20045;-72
2022/01/04 02:56:02;;;;;;;9.43;4.22;;;;;;;8.61;100.00;99646.13;5043721;28;20045;-74
2022/01/04 02:58:29;;;;;;;14.70;4.22;;;;;;;8.64;100.00;99647.31;5050043;28;20048;-71
2022/01/04 03:00:56;;;;;;;10.27;3.85;;;;;;;8.65;100.00;99646.91;5047698;28;20522;-72
2022/01/04 03:03:23;;;;;;;10.35;4.45;;;;;;;8.63;100.00;99643.75;5048182;28;20106;-74
2022/01/04 03:05:49;;;;;;;8.85;3.90;;;;;;;8.60;100.00;99638.28;5033183;28;20067;-70
2022/01/04 03:08:16;;;;;;;4.07;1.80;;;;;;;8.55;100.00;99642.28;5029474;28;20057;-71
2022/01/04 03:10:42;;;;;;;13.45;5.00;;;;;;;8.62;100.00;99633.94;5033075;28;20072;-71
2022/01/04 03:13:09;;;;;;;5.82;2.50;;;;;;;8.57;100.00;99645.38;5049843;28;20049;-71
2022/01/04 03:15:36;;;;;;;13.57;5.18;;;;;;;8.57;100.00;99639.88;5049049;28;20056;-72
2022/01/04 03:18:03;;;;;;;5.85;1.83;;;;;;;8.52;100.00;99634.81;5051310;28;20053;-71
2022/01/04 03:20:30;;;;;;;4.88;2.20;;;;;;;8.49;100.00;99621.06;5051825;28;20047;-71
2022/01/04 03:22:56;;;;;;;8.15;2.95;;;;;;;8.50;100.00;99626.16;5049607;28;20059;-72
2022/01/04 03:25:23;;;;;;;8.95;2.25;;;;;;;8.47;100.00;99629.72;5048374;28;20052;-71
2022/01/04 03:27:49;;;;;;;2.17;1.30;;;;;;;8.41;100.00;99620.38;5036988;28;20056;-70
2022/01/04 03:30:16;;;;;;;13.70;2.67;;;;;;;8.42;100.00;99613.66;5035540;28;20053;-71
2022/01/04 03:32:42;;;;;;;8.00;2.92;;;;;;;8.44;100.00;99602.22;5034454;28;20168;-72
2022/01/04 03:35:09;;;;;;;1.85;1.45;;;;;;;8.43;100.00;99606.19;5045477;28;20469;-71
2022/01/04 03:37:36;;;;;;;16.90;6.28;;;;;;;8.50;100.00;99590.31;5056964;28;20056;-71
2022/01/04 03:40:05;;;;;;;5.07;1.95;;;;;;;8.40;100.00;99590.44;5050138;28;20057;-71
2022/01/04 03:42:32;;;;;;;11.95;3.80;;;;;;;8.40;100.00;99577.44;5047652;28;20059;-71
2022/01/04 03:44:58;;;;;;;3.50;2.03;;;;;;;8.38;100.00;99571.56;5051912;28;20131;-72
2022/01/04 03:47:25;;;;;;;6.60;3.20;;;;;;;8.33;100.00;99569.25;5050169;28;20064;-72
2022/01/04 03:49:52;;;;;;;10.60;3.15;;;;;;;8.35;100.00;99566.88;5044361;28;20376;-72
2022/01/04 03:52:18;;;;;;;4.25;2.05;;;;;;;8.42;100.00;99558.53;5047363;28;20053;-72
2022/01/04 03:54:45;;;;;;;12.57;4.07;;;;;;;8.41;100.00;99545.16;5049373;28;20051;-71
2022/01/04 03:57:12;;;;;;;7.05;2.40;;;;;;;8.40;100.00;99541.59;5048047;28;20052;-73
2022/01/04 03:59:38;;;;;;;4.10;1.70;;;;;;;8.38;100.00;99535.75;5038429;28;20093;-70
2022/01/04 04:02:05;;;;;;;5.40;2.30;;;;;;;8.44;100.00;99533.31;5049899;28;20045;-71
2022/01/04 04:04:32;;;;;;;17.58;7.07;;;;;;;8.45;100.00;99519.13;5048835;28;20052;-71
2022/01/04 04:06:58;;;;;;;8.15;2.35;;;;;;;8.40;100.00;99513.28;5035396;28;20140;-71
2022/01/04 04:09:25;;;;;;;13.95;5.90;;;;;;;8.43;100.00;99507.72;5030528;28;20071;-72
2022/01/04 04:11:51;;;;;;;5.40;2.55;;;;;;;8.41;100.00;99496.34;5029252;28;20053;-70
2022/01/04 04:14:18;;;;;;;9.32;3.45;;;;;;;8.40;100.00;99491.22;5039441;28;20107;-73
2022/01/04 04:17:05;;;;;;;11.48;4.50;;;;;;;8.37;100.00;99479.03;5033807;28;20064;-71
2022/01/04 04:19:31;;;;;;;15.98;6.57;;;;;;;8.46;100.00;99473.03;5056952;28;20049;-71
2022/01/04 04:21:58;;;;;;;7.75;2.83;;;;;;;8.41;100.00;99476.25;5048058;28;20141;-73
2022/01/04 04:24:25;;;;;;;13.32;5.95;;;;;;;8.43;100.00;99462.84;5047798;28;20140;-70
2022/01/04 04:26:51;;;;;;;16.00;6.10;;;;;;;8.43;100.00;99455.34;5048294;28;20052;-71
2022/01/04 04:29:18;;;;;;;15.00;5.35;;;;;;;8.41;100.00;99455.00;5048670;28;20067;-71
2022/01/04 04:31:44;;;;;;;5.72;2.58;;;;;;;8.44;100.00;99456.91;5035053;28;20053;-71
2022/01/04 04:34:11;;;;;;;17.17;4.78;;;;;;;8.42;100.00;99448.28;5040151;28;20053;-72
2022/01/04 04:36:37;;;;;;;12.13;4.57;;;;;;;8.38;100.00;99438.50;5054666;28;20824;-71
2022/01/04 04:39:04;;;;;;;7.75;1.98;;;;;;;8.36;100.00;99438.91;5049311;28;20064;-70
2022/01/04 04:41:30;;;;;;;18.48;6.95;;;;;;;8.43;100.00;99438.81;5036206;28;20051;-71
2022/01/04 04:43:57;;;;;;;17.65;6.47;;;;;;;8.46;100.00;99434.44;5043415;28;20052;-70
2022/01/04 04:46:23;;;;;;;9.95;4.00;;;;;;;8.42;100.00;99437.25;5027643;28;20057;-73
2022/01/04 04:48:50;;;;;;;13.98;5.53;;;;;;;8.40;100.00;99434.13;5042318;28;20055;-72
2022/01/04 04:51:16;;;;;;;5.70;3.95;;;;;;;8.38;100.00;99438.50;5034960;28;20052;-69
2022/01/04 04:53:43;;;;;;;11.98;3.67;;;;;;;8.40;100.00;99430.59;5047132;28;20055;-71
2022/01/04 04:56:10;;;;;;;18.58;5.50;;;;;;;8.39;100.00;99421.53;5048045;28;20051;-72
2022/01/04 04:58:37;;;;;;;11.05;4.10;;;;;;;8.40;100.00;99419.56;5041507;28;20049;-72
2022/01/04 05:01:04;;;;;;;5.28;2.53;;;;;;;8.35;100.00;99415.28;5046684;28;20084;-75
2022/01/04 05:03:30;;;;;;;11.55;4.22;;;;;;;8.38;100.00;99420.00;5047718;28;20068;-71
2022/01/04 05:05:57;;;;;;;14.45;6.47;;;;;;;8.49;100.00;99425.34;5034755;28;20145;-71
2022/01/04 05:08:23;;;;;;;5.95;2.95;;;;;;;8.44;100.00;99423.81;5043537;28;20053;-71
2022/01/04 05:10:50;;;;;;;13.95;6.03;;;;;;;8.46;100.00;99421.44;5040731;28;20668;-73
2022/01/04 05:13:16;;;;;;;14.57;5.60;;;;;;;8.43;100.00;99425.03;5034068;28;20058;-72
2022/01/04 05:15:43;;;;;;;12.35;5.00;;;;;;;8.42;100.00;99428.19;5026636;28;20068;-72
2022/01/04 05:18:09;;;;;;;10.25;5.00;;;;;;;8.44;100.00;99414.78;5042675;28;20061;-72
2022/01/04 05:20:36;;;;;;;22.63;7.55;;;;;;;8.46;100.00;99418.69;5048723;28;20106;-73
2022/01/04 05:23:03;;;;;;;9.82;3.60;;;;;;;8.37;100.00;99417.63;5045904;28;20057;-73
2022/01/04 05:25:29;;;;;;;9.13;2.88;;;;;;;8.40;100.00;99419.56;5034910;28;20055;-71
2022/01/04 05:27:56;;;;;;;17.70;4.47;;;;;;;8.39;100.00;99424.28;5048013;28;20140;-72
2022/01/04 05:30:22;;;;;;;9.57;3.65;;;;;;;8.41;100.00;99419.16;5028787;28;20075;-74
2022/01/04 05:32:49;;;;;;;20.52;6.95;;;;;;;8.45;100.00;99425.41;5028225;28;20046;-71
2022/01/04 05:35:15;;;;;;;8.68;4.40;;;;;;;8.38;100.00;99428.25;5051311;28;20052;-71
2022/01/04 05:37:42;;;;;;;8.25;3.25;;;;;;;8.36;100.00;99422.38;5053524;28;20151;-71
2022/01/04 05:40:09;;;;;;;8.85;3.60;;;;;;;8.39;100.00;99418.00;5033011;28;20139;-71
2022/01/04 05:42:36;;;;;;;11.57;4.28;;;;;;;8.39;100.00;99418.00;5046531;28;20421;-71
2022/01/04 05:45:04;;;;;;;9.95;4.57;;;;;;;8.40;100.00;99414.81;5047774;28;20155;-71
2022/01/04 05:47:31;;;;;;;4.32;1.45;;;;;;;8.39;100.00;99424.28;5047715;28;20087;-71
2022/01/04 05:49:57;;;;;;;20.42;8.35;;;;;;;8.44;100.00;99410.03;5043024;28;20164;-71
2022/01/04 05:52:25;;;;;;;9.70;3.65;;;;;;;8.36;100.00;99414.09;5040284;28;20056;-71
2022/01/04 05:54:51;;;;;;;4.50;2.88;;;;;;;8.37;100.00;99401.88;5036105;28;20127;-71
2022/01/04 05:57:18;;;;;;;18.90;6.50;;;;;;;8.30;100.00;99396.44;5038474;28;20655;-73
2022/01/04 05:59:45;;;;;;;7.43;3.53;;;;;;;8.39;100.00;99388.47;5043150;28;20442;-71
2022/01/04 06:02:11;;;;;;;7.05;3.13;;;;;;;8.36;100.00;99381.03;5045889;28;20095;-72
2022/01/04 06:04:38;;;;;;;4.78;2.40;;;;;;;8.36;100.00;99392.03;5039829;28;20081;-73
2022/01/04 06:07:05;;;;;;;18.05;5.30;;;;;;;8.38;100.00;99366.84;5027960;28;20057;-70
2022/01/04 06:09:40;;;;;;;20.63;7.00;;;;;;;8.37;100.00;99363.28;5036897;28;20068;-71
2022/01/04 06:14:50;;;;;;;19.10;7.75;;;;;;;8.37;100.00;99354.25;5046032;28;20052;-72
2022/01/04 06:14:57;;;;;;;17.67;6.95;;;;;;;8.37;100.00;99357.78;5043146;28;20063;-71
2022/01/04 06:17:38;;;;;;;17.27;5.15;;;;;;;8.34;100.00;99349.56;5047933;28;20071;-71
2022/01/04 06:20:07;;;;;;;18.65;4.90;;;;;;;8.37;100.00;99355.00;5051449;28;20601;-71
2022/01/04 06:22:33;;;;;;;16.30;4.88;;;;;;;8.32;100.00;99346.44;5046691;28;20140;-71
2022/01/04 06:25:01;;;;;;;23.58;8.30;;;;;;;8.36;100.00;99336.94;5030602;28;20050;-70
2022/01/04 06:27:27;;;;;;;21.20;8.15;;;;;;;8.36;100.00;99345.19;5027853;28;20065;-70
2022/01/04 06:29:54;;;;;;;17.50;7.15;;;;;;;8.35;100.00;99365.69;5037912;28;20067;-69
2022/01/04 06:32:21;;;;;;;25.23;10.25;;;;;;;8.42;100.00;99351.03;5026988;28;20516;-71
2022/01/04 06:34:47;;;;;;;10.20;4.90;;;;;;;8.35;100.00;99356.63;5044899;28;20065;-72
2022/01/04 06:37:14;;;;;;;7.95;4.82;;;;;;;8.34;100.00;99358.63;5056760;28;20083;-72
2022/01/04 06:39:42;;;;;;;19.10;7.85;;;;;;;8.38;100.00;99342.81;5041976;28;20064;-70
2022/01/04 06:42:09;;;;;;;15.25;5.28;;;;;;;8.36;100.00;99342.44;5035813;28;20194;-72
2022/01/04 06:44:36;;;;;;;6.45;2.63;;;;;;;8.35;100.00;99338.13;5026475;28;20145;-71
2022/01/04 06:47:03;;;;;;;5.82;3.45;;;;;;;8.35;100.00;99335.38;5035127;28;20060;-72
2022/01/04 06:49:31;;;;;;;16.35;5.82;;;;;;;8.37;100.00;99330.22;5027355;28;20061;-71
2022/01/04 06:51:57;;;;;;;13.82;5.85;;;;;;;8.38;100.00;99331.00;5033848;28;20057;-72
2022/01/04 06:54:24;;;;;;;19.52;5.55;;;;;;;8.38;100.00;99329.03;5045891;28;20051;-73
2022/01/04 06:56:51;;;;;;;26.70;9.52;;;;;;;8.38;100.00;99323.53;5047701;28;20155;-72
2022/01/04 06:59:18;;;;;;;19.13;7.63;;;;;;;8.31;100.00;99315.38;5043075;28;20164;-71
2022/01/04 07:01:45;;;;;;;21.35;9.45;;;;;;;8.40;100.00;99312.84;5045302;28;20128;-71
2022/01/04 07:04:14;;;;;;;31.65;12.27;;;;;;;8.45;100.00;99315.16;5040395;28;20067;-73
2022/01/04 07:06:40;;;;;;;30.25;12.10;;;;;;;8.42;100.00;99307.72;5027170;28;20096;-71
2022/01/04 07:09:08;;;;;;;14.13;5.85;;;;;;;8.38;100.00;99322.72;5048014;28;20120;-72
2022/01/04 07:11:35;;;;;;;27.25;9.52;;;;;;;8.45;100.00;99325.38;5043772;28;20126;-74
2022/01/04 07:14:02;;;;;;;3.90;2.88;;;;;;;8.41;100.00;99328.22;5046037;28;20068;-72
2022/01/04 07:16:29;;;;;;;20.08;6.97;;;;;;;8.41;100.00;99330.19;5052259;28;20056;-71
2022/01/04 07:18:55;;;;;;;23.73;7.97;;;;;;;8.38;100.00;99318.00;5051740;28;20057;-70
2022/01/04 07:21:22;;;;;;;9.60;4.45;;;;;;;8.42;100.00;99320.69;5051072;28;20047;-72
2022/01/04 07:23:50;;;;;;;15.20;6.60;;;;;;;8.39;100.00;99307.75;5047280;28;20103;-73
2022/01/04 07:26:17;;;;;;;11.00;5.38;;;;;;;8.43;100.00;99308.50;5053044;28;20132;-71
2022/01/04 07:28:46;;;;;;;33.60;12.27;;;;;;;8.47;100.00;99309.22;5047349;28;20073;-72
2022/01/04 07:31:15;;;;;;;27.02;12.43;;;;;;;8.50;100.00;99308.41;5050806;28;20166;-72
2022/01/04 07:33:44;;;;;;;19.50;7.32;;;;;;;8.43;100.00;99303.75;5044760;28;20041;-71
2022/01/04 07:36:11;;;;;;;11.13;4.80;;;;;;;8.44;100.00;99301.78;5058223;28;20063;-72
2022/01/04 07:38:38;;;;;;;25.48;9.00;;;;;;;8.45;100.00;99306.88;5060695;28;20088;-73
2022/01/04 07:41:05;;;;;;;8.82;3.65;;;;;;;8.43;100.00;99303.75;5049401;28;20155;-70
2022/01/04 07:43:32;;;;;;;27.38;9.35;;;;;;;8.50;100.00;99300.13;5049939;28;20140;-71
2022/01/04 07:45:59;;;;;;;9.55;3.90;;;;;;;8.40;100.00;99304.59;5051659;28;20390;-71
2022/01/04 07:48:26;;;;;;;10.43;3.92;;;;;;;8.41;100.00;99305.38;5051487;28;20133;-71
2022/01/04 07:50:55;;;;;;;10.63;3.60;;;;;;;8.41;100.00;99300.66;5045453;28;20055;-73
2022/01/04 07:53:27;;;;;;;16.65;6.03;;;;;;;8.39;100.00;99292.00;5042731;28;20056;-70
2022/01/04 07:55:54;;;;;;;6.75;2.95;;;;;;;8.45;100.00;99301.38;5049145;28;20127;-73
2022/01/04 07:58:22;;;;;;;21.33;8.35;;;;;;;8.46;100.00;99289.13;5049346;28;20049;-72
2022/01/04 08:00:49;;;;;;;29.05;9.90;;;;;;;8.46;100.00;99280.88;5049628;28;20132;-71
2022/01/04 08:03:16;;;;;;;29.15;10.63;;;;;;;8.51;100.00;99290.66;5048672;28;20083;-73
2022/01/04 08:05:43;;;;;;;25.08;8.60;;;;;;;8.44;100.00;99277.75;5037186;28;20056;-71
2022/01/04 08:08:09;;;;;;;19.02;7.10;;;;;;;8.37;100.00;99274.34;5043352;28;20053;-72
2022/01/04 08:10:36;;;;;;;16.17;5.82;;;;;;;8.42;100.00;99265.59;5044100;28;20049;-71
2022/01/04 08:13:03;;;;;;;9.30;3.10;;;;;;;8.46;100.00;99271.81;5039816;28;20063;-74
2022/01/04 08:15:30;;;;;;;19.58;7.85;;;;;;;8.45;100.00;99262.78;5043391;28;20040;-70
2022/01/04 08:17:58;;;;;;;21.67;9.02;;;;;;;8.47;100.00;99263.13;5047799;28;20257;-67
2022/01/04 08:20:25;;;;;;;22.83;10.80;;;;;;;8.51;100.00;99272.16;5040941;28;20045;-68
2022/01/04 08:22:51;;;;;;;21.73;8.20;;;;;;;8.55;100.00;99272.06;5041842;28;20053;-69
2022/01/04 08:25:18;;;;;;;14.00;6.28;;;;;;;8.48;100.00;99274.94;5046678;28;20053;-69
2022/01/04 08:27:45;;;;;;;27.98;10.00;;;;;;;8.52;100.00;99279.22;5046587;28;20552;-71
2022/01/04 08:30:13;;;;;;;21.08;8.52;;;;;;;8.48;100.00;99270.22;5043368;28;20421;-71
2022/01/04 08:32:40;;;;;;;28.27;8.88;;;;;;;8.49;100.00;99263.50;5047228;28;20077;-70
2022/01/04 08:35:08;;;;;;;24.50;9.93;;;;;;;8.52;100.00;99262.66;5050698;28;20044;-70
2022/01/04 08:37:34;;;;;;;21.92;8.40;;;;;;;8.52;100.00;99275.66;5038092;28;20573;-71
2022/01/04 08:40:01;;;;;;;9.40;4.85;;;;;;;8.46;100.00;99275.38;5048248;28;20103;-70
2022/01/04 08:42:28;;;;;;;14.30;4.78;;;;;;;8.47;100.00;99271.41;5041421;28;20042;-71
2022/01/04 08:44:55;;;;;;;23.83;8.30;;;;;;;8.49;100.00;99280.03;5047401;28;20148;-71
2022/01/04 08:47:23;;;;;;;19.27;6.53;;;;;;;8.43;100.00;99269.91;5042173;28;20053;-73
2022/01/04 08:49:49;;;;;;;22.63;9.55;;;;;;;8.51;100.00;99274.13;5043249;28;20107;-72
2022/01/04 08:52:16;;;;;;;9.68;3.70;;;;;;;8.44;100.00;99272.22;5042555;28;20160;-71
2022/01/04 08:54:43;;;;;;;13.45;4.38;;;;;;;8.48;100.00;99270.22;5048756;28;20048;-74
2022/01/04 08:57:09;;;;;;;6.63;3.15;;;;;;;8.46;100.00;99275.38;5041514;28;20565;-72
2022/01/04 08:59:36;;;;;;;20.42;6.72;;;;;;;8.47;100.00;99268.63;5033797;28;20048;-71
2022/01/04 09:02:02;;;;;;;7.53;2.88;;;;;;;8.40;100.00;99263.25;5045999;28;20045;-74
2022/01/04 09:04:29;;;;;;;24.13;8.93;;;;;;;8.50;100.00;99261.53;5041689;28;20061;-72
2022/01/04 09:06:56;;;;;;;9.70;3.53;;;;;;;8.45;100.00;99268.28;5044489;28;20053;-72
2022/01/04 09:09:23;;;;;;;14.93;5.88;;;;;;;8.40;100.00;99268.75;5048351;28;20048;-74
2022/01/04 09:11:50;;;;;;;16.25;6.63;;;;;;;8.45;100.00;99270.25;5044666;28;20576;-72
2022/01/04 09:14:41;;;;;;;16.55;5.47;;;;;;;8.39;100.00;99278.22;5042555;28;20071;-70
2022/01/04 09:19:56;;;;;;;19.95;5.90;;;;;;;8.36;100.00;99287.31;5042659;28;20049;-73
2022/01/04 09:22:23;;;;;;;13.13;4.75;;;;;;;8.40;100.00;99298.31;5040333;28;20052;-74
2022/01/04 09:24:49;;;;;;;16.30;6.63;;;;;;;8.41;100.00;99299.84;5040176;28;20094;-74
2022/01/04 09:27:16;;;;;;;12.40;5.05;;;;;;;8.43;100.00;99301.00;5036698;28;20155;-73
2022/01/04 09:29:43;;;;;;;20.00;7.63;;;;;;;8.43;100.00;99295.47;5047415;28;20139;-72
2022/01/04 09:32:16;;;;;;;13.85;5.88;;;;;;;8.39;100.00;99289.25;5038596;28;20107;-70
2022/01/04 09:34:44;;;;;;;27.25;10.75;;;;;;;8.45;100.00;99297.81;5047539;28;20063;-71
2022/01/04 09:37:11;;;;;;;8.73;5.03;;;;;;;8.42;100.00;99291.19;5030169;28;20128;-70
2022/01/04 09:39:38;;;;;;;12.45;4.47;;;;;;;8.41;100.00;99283.31;5031704;28;20045;-72
2022/01/04 09:42:09;;;;;;;29.25;11.82;;;;;;;8.51;100.00;99277.66;5027598;28;20050;-71
2022/01/04 09:44:36;;;;;;;27.35;10.82;;;;;;;8.47;100.00;99274.16;5040558;28;20133;-71
2022/01/04 09:47:04;;;;;;;14.45;4.97;;;;;;;8.49;100.00;99273.75;5030696;28;20140;-71
2022/01/04 09:49:31;;;;;;;15.57;5.18;;;;;;;8.44;100.00;99263.97;5034166;28;20048;-73
2022/01/04 09:51:58;;;;;;;24.65;8.95;;;;;;;8.47;100.00;99265.13;5042331;28;20118;-73
2022/01/04 09:54:26;;;;;;;22.42;7.45;;;;;;;8.49;100.00;99276.50;5036756;28;20042;-72
2022/01/04 09:56:53;;;;;;;30.30;11.15;;;;;;;8.54;100.00;99276.03;5040920;28;20095;-73
2022/01/04 09:59:20;;;;;;;16.98;6.95;;;;;;;8.46;100.00;99288.34;5044336;28;20073;-71
2022/01/04 10:01:53;;;;;;;13.45;5.93;;;;;;;8.49;100.00;99276.50;5047353;28;20047;-70
2022/01/04 10:04:24;;;;;;;14.18;4.63;;;;;;;8.48;100.00;99278.50;5048022;28;20492;-71
2022/01/04 10:07:07;;;;;;;22.63;7.70;;;;;;;8.45;100.00;99275.78;5045712;28;20052;-73
2022/01/04 10:09:46;;;;;;;16.05;6.40;;;;;;;8.48;100.00;99283.22;5044793;28;20045;-73
2022/01/04 10:12:15;;;;;;;21.63;7.88;;;;;;;8.52;100.00;99290.25;5041172;28;20088;-71
2022/01/04 10:14:48;;;;;;;21.52;8.10;;;;;;;8.55;100.00;99275.63;5028864;28;20095;-72
2022/01/04 10:17:23;;;;;;;25.88;10.93;;;;;;;8.56;100.00;99271.66;5047686;28;20049;-71
2022/01/04 10:19:51;;;;;;;;;;;;;;;8.54;100.00;99267.78;5040674;28;20067;-71
2022/01/04 10:22:23;;;;;;;8.55;2.92;;;;;;;8.55;100.00;99270.09;5033504;28;19972;-71
2022/01/04 10:25:05;;;;;;;18.08;6.43;;;;;;;8.56;100.00;99274.41;5026233;28;20557;-73
2022/01/04 10:27:50;;;;;;;17.75;6.10;;;;;;;8.53;100.00;99266.97;5042430;28;20693;-71
2022/01/04 10:30:20;;;;;;;10.90;3.00;;;;;;;8.57;100.00;99266.94;5038102;28;20049;-71
2022/01/04 10:32:59;;;;;;;12.75;4.40;;;;;;;8.56;100.00;99271.66;5033489;28;20499;-73
2022/01/04 10:35:38;;;;;;;26.25;11.88;;;;;;;8.66;100.00;99272.69;5052020;28;20048;-70
2022/01/04 10:38:11;;;;;;;18.38;7.15;;;;;;;8.57;100.00;99275.97;5044046;28;20484;-72
2022/01/04 10:40:39;;;;;;;20.95;8.65;;;;;;;8.51;100.00;99271.34;5047179;28;20088;-72
2022/01/04 10:43:11;;;;;;;5.93;3.15;;;;;;;8.57;100.00;99264.94;5046328;28;20045;-71
2022/01/04 10:45:40;;;;;;;21.60;9.23;;;;;;;8.57;100.00;99264.19;5047046;28;20835;-71
2022/01/04 10:48:11;;;;;;;26.05;11.55;;;;;;;8.55;100.00;99270.09;5046178;28;20053;-71
2022/01/04 10:50:39;;;;;;;24.30;9.35;;;;;;;8.58;100.00;99255.50;5046461;28;20087;-72
2022/01/04 10:53:12;;;;;;;24.50;11.60;;;;;;;8.57;100.00;99253.16;5046229;28;20128;-72
2022/01/04 10:55:39;;;;;;;20.00;9.20;;;;;;;8.67;100.00;99247.44;5047719;28;20053;-71
2022/01/04 10:58:06;;;;;;;21.58;8.57;;;;;;;8.67;100.00;99252.97;5037404;28;20081;-72
2022/01/04 11:00:32;;;;;;;22.85;9.13;;;;;;;8.69;100.00;99247.81;5045664;28;20496;-72
2022/01/04 11:03:02;;;;;;;28.25;12.88;;;;;;;8.59;100.00;99240.50;5037668;28;20478;-72
2022/01/04 11:05:29;;;;;;;22.98;9.70;;;;;;;8.61;100.00;99243.59;5049792;28;20164;-71
2022/01/04 11:07:56;;;;;;;24.30;11.07;;;;;;;8.61;100.00;99249.13;5050766;28;20585;-72
2022/01/04 11:10:24;;;;;;;26.42;12.18;;;;;;;8.70;100.00;99240.31;5049218;28;20507;-72
2022/01/04 11:12:52;;;;;;;29.58;11.10;;;;;;;8.62;100.00;99233.38;5048197;28;20084;-71
2022/01/04 11:15:18;;;;;;;27.35;12.68;;;;;;;8.63;100.00;99240.44;5033311;28;20433;-72
2022/01/04 11:17:46;;;;;;;26.77;12.50;;;;;;;8.61;100.00;99243.59;5045909;28;20048;-71
2022/01/04 11:20:12;;;;;;;22.77;8.35;;;;;;;8.62;100.00;99233.38;5054913;28;20501;-73
2022/01/04 11:22:40;;;;;;;30.48;13.45;;;;;;;8.59;100.00;99236.94;5048746;28;20502;-72
2022/01/04 11:25:07;;;;;;;33.60;14.65;;;;;;;8.71;100.00;99237.13;5049254;28;20080;-72
2022/01/04 11:27:36;;;;;;;19.15;8.52;;;;;;;8.71;100.00;99247.41;5047458;28;20073;-72
2022/01/04 11:30:25;;;;;;;22.52;10.30;;;;;;;8.67;100.00;99247.44;5046147;28;20042;-76
2022/01/04 11:32:59;;;;;;;23.85;10.45;;;;;;;8.66;100.00;99245.91;5047240;28;20048;-70
2022/01/04 11:35:26;;;;;;;23.83;10.98;;;;;;;8.74;100.00;99252.06;5037394;28;20100;-73
2022/01/04 11:37:54;;;;;;;13.50;6.82;;;;;;;8.75;100.00;99259.16;5044958;28;20151;-72
2022/01/04 11:40:22;;;;;;;38.53;17.05;;;;;;;8.76;100.00;99247.69;5039730;28;20105;-73